createdAt,value
2018-11-02T00:01:44.401Z,11.74
2018-11-02T00:04:16.020Z,11.72
2018-11-02T00:06:49.119Z,11.69
2018-11-02T00:09:22.162Z,11.70
2018-11-02T00:11:55.153Z,11.73
2018-11-02T00:14:28.165Z,11.73
2018-11-02T00:17:01.128Z,11.77
2018-11-02T00:19:35.384Z,11.80
2018-11-02T00:22:07.382Z,11.90
2018-11-02T00:24:38.488Z,11.83
2018-11-02T00:27:11.521Z,11.87
2018-11-02T00:29:44.109Z,11.92
2018-11-02T00:32:17.243Z,11.97
2018-11-02T00:34:50.144Z,12.00
2018-11-02T00:37:23.252Z,11.98
2018-11-02T00:39:56.125Z,11.98
2018-11-02T00:42:29.247Z,11.84
2018-11-02T00:45:02.264Z,11.70
2018-11-02T00:47:37.739Z,11.69
2018-11-02T00:50:12.969Z,11.70
2018-11-02T00:52:45.702Z,11.57
2018-11-02T00:55:18.627Z,11.42
2018-11-02T00:57:51.610Z,11.27
2018-11-02T01:00:24.703Z,11.12
2018-11-02T01:02:57.682Z,11.12
2018-11-02T01:05:30.702Z,10.79
2018-11-02T01:08:03.664Z,10.71
2018-11-02T01:10:36.638Z,10.71
2018-11-02T01:13:09.599Z,10.67
2018-11-02T01:15:42.650Z,10.67
2018-11-02T01:18:15.975Z,10.67
2018-11-02T01:20:48.899Z,10.67
2018-11-02T01:23:21.985Z,10.80
2018-11-02T01:25:54.975Z,10.91
2018-11-02T01:28:27.982Z,10.95
2018-11-02T01:31:01.164Z,10.88
2018-11-02T01:33:41.246Z,10.92
2018-11-02T01:36:14.094Z,11.02
2018-11-02T01:38:47.250Z,11.17
2018-11-02T01:41:20.118Z,11.25
2018-11-02T01:43:53.237Z,11.35
2018-11-02T01:46:26.167Z,11.41
2018-11-02T01:48:59.248Z,11.43
2018-11-02T01:51:32.263Z,11.49
2018-11-02T01:54:05.243Z,11.57
2018-11-02T01:56:38.123Z,11.63
2018-11-02T01:59:11.244Z,11.72
2018-11-02T02:01:44.102Z,11.83
2018-11-02T02:04:17.240Z,11.89
2018-11-02T02:06:50.134Z,11.99
2018-11-02T02:09:23.249Z,12.06
2018-11-02T02:11:56.191Z,12.13
2018-11-02T02:14:29.251Z,12.18
2018-11-02T02:17:02.197Z,12.20
2018-11-02T02:19:37.648Z,12.20
2018-11-02T02:22:10.485Z,12.20
2018-11-02T02:24:41.659Z,12.20
2018-11-02T02:27:14.575Z,12.25
2018-11-02T02:29:47.413Z,12.25
2018-11-02T02:32:18.674Z,12.20
2018-11-02T02:34:51.666Z,12.17
2018-11-02T02:37:24.658Z,12.08
2018-11-02T02:39:57.594Z,12.08
2018-11-02T02:42:30.384Z,12.04
2018-11-02T02:45:01.880Z,12.02
2018-11-02T02:47:34.677Z,12.04
2018-11-02T02:50:09.571Z,12.10
2018-11-02T02:52:42.670Z,12.10
2018-11-02T02:55:15.606Z,12.13
2018-11-02T02:57:48.480Z,12.14
2018-11-02T03:00:19.884Z,12.14
2018-11-02T03:02:52.606Z,12.18
2018-11-02T03:05:25.435Z,12.16
2018-11-02T03:07:56.477Z,12.16
2018-11-02T03:10:29.500Z,12.10
2018-11-02T03:13:00.835Z,12.10
2018-11-02T03:15:33.977Z,12.11
2018-11-02T03:18:06.984Z,12.15
2018-11-02T03:20:39.916Z,12.16
2018-11-02T03:23:12.692Z,12.21
2018-11-02T03:25:45.659Z,12.16
2018-11-02T03:28:18.472Z,12.12
2018-11-02T03:30:49.883Z,12.12
2018-11-02T03:33:22.616Z,12.09
2018-11-02T03:35:55.492Z,12.07
2018-11-02T03:38:26.655Z,12.07
2018-11-02T03:40:59.561Z,11.95
2018-11-02T03:43:32.496Z,11.95
2018-11-02T03:46:04.017Z,11.97
2018-11-02T03:48:37.246Z,11.95
2018-11-02T03:51:10.239Z,11.88
2018-11-02T03:53:43.098Z,11.85
2018-11-02T03:56:16.248Z,11.80
2018-11-02T03:58:49.137Z,11.75
2018-11-02T04:01:22.253Z,11.69
2018-11-02T04:03:55.091Z,11.68
2018-11-02T04:06:28.249Z,11.66
2018-11-02T04:09:01.098Z,11.53
2018-11-02T04:11:34.239Z,11.45
2018-11-02T04:14:07.243Z,11.45
2018-11-02T04:16:40.249Z,11.43
2018-11-02T04:19:13.061Z,11.49
2018-11-02T04:21:47.614Z,11.47
2018-11-02T04:24:20.496Z,11.52
2018-11-02T04:26:53.420Z,11.52
2018-11-02T04:29:24.828Z,11.56
2018-11-02T04:31:57.611Z,11.53
2018-11-02T04:34:30.667Z,11.55
2018-11-02T04:37:03.718Z,11.55
2018-11-02T04:39:36.727Z,11.61
2018-11-02T04:42:09.698Z,11.58
2018-11-02T04:44:43.362Z,11.50
2018-11-02T04:47:14.479Z,11.50
2018-11-02T04:49:45.894Z,11.57
2018-11-02T04:52:18.826Z,11.58
2018-11-02T04:54:51.711Z,11.54
2018-11-02T04:57:24.627Z,11.63
2018-11-02T04:59:57.567Z,11.63
2018-11-02T05:02:30.475Z,11.63
2018-11-02T05:05:01.904Z,11.70
2018-11-02T05:07:34.665Z,11.70
2018-11-02T05:10:08.400Z,11.66
2018-11-02T05:12:41.252Z,11.64
2018-11-02T05:15:14.279Z,11.54
2018-11-02T05:17:47.243Z,11.37
2018-11-02T05:20:20.136Z,11.37
2018-11-02T05:22:53.254Z,11.36
2018-11-02T05:25:26.262Z,11.32
2018-11-02T05:27:59.260Z,11.29
2018-11-02T05:30:32.099Z,11.18
2018-11-02T05:33:05.236Z,11.19
2018-11-02T05:35:38.116Z,11.21
2018-11-02T05:38:11.218Z,11.17
2018-11-02T05:40:44.150Z,11.11
2018-11-02T05:43:17.144Z,11.12
2018-11-02T05:45:50.103Z,11.11
2018-11-02T05:48:23.252Z,11.12
2018-11-02T05:50:56.380Z,11.09
2018-11-02T05:53:27.599Z,11.12
2018-11-02T05:56:00.419Z,11.18
2018-11-02T05:58:33.531Z,11.20
2018-11-02T06:01:06.419Z,11.14
2018-11-02T06:03:37.875Z,11.14
2018-11-02T06:06:10.663Z,11.16
2018-11-02T06:08:43.651Z,11.12
2018-11-02T06:11:16.487Z,11.02
2018-11-02T06:13:47.708Z,11.02
2018-11-02T06:16:20.681Z,11.12
2018-11-02T06:18:53.525Z,11.16
2018-11-02T06:21:26.421Z,11.16
2018-11-02T06:23:57.739Z,11.16
2018-11-02T06:26:30.679Z,11.21
2018-11-02T06:29:03.733Z,11.18
2018-11-02T06:31:36.790Z,11.13
2018-11-02T06:34:09.979Z,11.13
2018-11-02T06:36:42.986Z,11.24
2018-11-02T06:39:16.135Z,11.27
2018-11-02T06:41:49.127Z,11.31
2018-11-02T06:44:22.267Z,11.35
2018-11-02T06:46:55.377Z,11.45
2018-11-02T06:49:26.899Z,11.50
2018-11-02T06:51:59.977Z,11.56
2018-11-02T06:54:32.656Z,11.61
2018-11-02T06:57:05.587Z,11.81
2018-11-02T06:59:37.042Z,11.81
2018-11-02T07:02:10.418Z,11.97
2018-11-02T07:04:41.912Z,12.07
2018-11-02T07:07:14.665Z,12.19
2018-11-02T07:09:47.581Z,12.52
2018-11-02T07:12:20.425Z,12.52
2018-11-02T07:14:53.491Z,12.61
2018-11-02T07:17:26.506Z,12.67
2018-11-02T07:19:57.729Z,12.66
2018-11-02T07:22:30.801Z,12.63
2018-11-02T07:25:03.710Z,12.64
2018-11-02T07:27:36.646Z,12.64
2018-11-02T07:30:31.529Z,12.70
2018-11-02T07:33:02.911Z,12.62
2018-11-02T07:35:35.666Z,12.59
2018-11-02T07:38:08.657Z,12.59
2018-11-02T07:40:41.508Z,12.59
2018-11-02T07:43:14.265Z,12.73
2018-11-02T07:45:47.258Z,12.75
2018-11-02T07:48:20.260Z,12.68
2018-11-02T07:50:53.267Z,12.70
2018-11-02T07:53:26.460Z,12.72
2018-11-02T07:55:57.945Z,12.68
2018-11-02T07:58:31.003Z,12.68
2018-11-02T08:01:03.982Z,12.69
2018-11-02T08:03:37.542Z,12.72
2018-11-02T08:06:10.448Z,12.71
2018-11-02T08:08:41.899Z,12.64
2018-11-02T08:11:14.655Z,12.64
2018-11-02T08:13:47.652Z,12.87
2018-11-02T08:16:20.491Z,12.92
2018-11-02T08:18:53.297Z,12.92
2018-11-02T08:21:26.132Z,12.97
2018-11-02T08:23:59.261Z,13.17
2018-11-02T08:26:32.398Z,13.28
2018-11-02T08:29:03.909Z,13.39
2018-11-02T08:31:36.938Z,13.46
2018-11-02T08:34:10.261Z,13.47
2018-11-02T08:36:43.159Z,13.59
2018-11-02T08:39:16.181Z,13.90
2018-11-02T08:41:49.127Z,13.99
2018-11-02T08:44:21.984Z,14.17
2018-11-02T08:46:54.988Z,14.25
2018-11-02T08:49:28.261Z,14.43
2018-11-02T08:52:01.130Z,14.31
2018-11-02T08:54:34.264Z,14.51
2018-11-02T08:57:07.139Z,14.61
2018-11-02T08:59:40.286Z,14.74
2018-11-02T09:04:59.061Z,14.86
2018-11-02T09:07:32.160Z,14.92
2018-11-02T09:10:05.263Z,15.04
2018-11-02T09:12:38.148Z,15.00
2018-11-02T09:15:11.272Z,15.15
2018-11-02T09:17:44.367Z,15.15
2018-11-02T09:20:17.151Z,15.34
2018-11-02T09:22:50.136Z,15.26
2018-11-02T09:25:23.133Z,15.25
2018-11-02T09:27:56.167Z,15.55
2018-11-02T09:30:29.116Z,15.58
2018-11-02T09:33:02.183Z,15.22
2018-11-02T09:35:35.169Z,15.05
2018-11-02T09:38:08.155Z,15.10
2018-11-02T09:40:40.916Z,15.25
2018-11-02T09:43:13.618Z,15.40
2018-11-02T09:45:46.566Z,15.33
2018-11-02T09:48:19.366Z,15.33
2018-11-02T09:50:52.381Z,15.63
2018-11-02T09:53:25.414Z,15.51
2018-11-02T09:55:56.599Z,15.50
2018-11-02T09:58:29.483Z,15.28
2018-11-02T10:01:00.932Z,15.28
2018-11-02T10:03:33.669Z,15.91
2018-11-02T10:06:06.769Z,15.90
2018-11-02T10:08:39.651Z,16.07
2018-11-02T10:11:12.629Z,16.17
2018-11-02T10:13:45.665Z,16.57
2018-11-02T10:16:18.535Z,16.33
2018-11-02T10:18:51.436Z,16.33
2018-11-02T10:21:22.913Z,16.36
2018-11-02T10:23:56.045Z,16.25
2018-11-02T10:26:28.796Z,15.94
2018-11-02T10:29:01.668Z,15.67
2018-11-02T10:31:34.637Z,16.09
2018-11-02T10:34:08.315Z,16.56
2018-11-02T10:36:42.123Z,16.56
2018-11-02T10:39:16.839Z,17.28
2018-11-02T10:41:52.259Z,18.31
2018-11-02T10:44:34.043Z,18.31
2018-11-02T10:47:09.140Z,18.26
2018-11-02T10:49:42.545Z,17.82
2018-11-02T10:52:15.467Z,17.63
2018-11-02T10:54:48.419Z,17.63
2018-11-02T10:57:19.478Z,17.97
2018-11-02T10:59:52.487Z,17.69
2018-11-02T11:02:38.312Z,17.84
2018-11-02T11:05:11.650Z,17.89
2018-11-02T11:07:44.614Z,18.23
2018-11-02T11:10:17.621Z,19.62
2018-11-02T11:12:53.572Z,19.62
2018-11-02T11:15:26.372Z,18.93
2018-11-02T11:17:57.906Z,18.69
2018-11-02T11:20:30.747Z,18.36
2018-11-02T11:23:03.970Z,18.06
2018-11-02T11:25:37.414Z,18.06
2018-11-02T11:28:09.257Z,17.79
2018-11-02T11:30:42.508Z,17.56
2018-11-02T11:33:15.548Z,17.05
2018-11-02T11:35:48.524Z,17.10
2018-11-02T11:38:21.429Z,17.17
2018-11-02T11:40:53.056Z,18.07
2018-11-02T11:44:30.595Z,18.78
2018-11-02T11:47:04.445Z,19.41
2018-11-02T11:49:36.085Z,20.88
2018-11-02T11:52:09.420Z,20.32
2018-11-02T11:54:40.931Z,20.87
2018-11-02T11:57:13.747Z,21.01
2018-11-02T11:59:46.798Z,23.06
2018-11-02T12:02:19.725Z,23.06
2018-11-02T12:04:52.505Z,23.05
2018-11-02T12:07:24.005Z,23.05
2018-11-02T12:09:57.227Z,22.40
2018-11-02T12:12:30.405Z,22.50
2018-11-02T12:15:01.919Z,22.10
2018-11-02T12:17:34.857Z,21.28
2018-11-02T12:20:10.397Z,20.49
2018-11-02T12:22:41.872Z,19.71
2018-11-02T12:25:15.619Z,19.05
2018-11-02T12:27:48.665Z,17.88
2018-11-02T12:30:21.713Z,17.66
2018-11-02T12:32:55.489Z,18.14
2018-11-02T12:35:27.119Z,18.14
2018-11-02T12:38:00.101Z,18.64
2018-11-02T12:40:33.171Z,18.66
2018-11-02T12:43:06.286Z,18.93
2018-11-02T12:45:39.340Z,19.01
2018-11-02T12:48:10.574Z,18.65
2018-11-02T12:50:43.466Z,17.93
2018-11-02T12:53:14.661Z,17.43
2018-11-02T12:55:47.524Z,17.13
2018-11-02T12:58:20.434Z,17.13
2018-11-02T13:00:51.904Z,16.93
2018-11-02T13:03:24.711Z,16.89
2018-11-02T13:05:57.617Z,16.63
2018-11-02T13:08:33.142Z,16.49
2018-11-02T13:11:06.259Z,16.49
2018-11-02T13:13:39.264Z,16.40
2018-11-02T13:16:12.467Z,16.15
2018-11-02T13:18:45.425Z,16.13
2018-11-02T13:21:18.121Z,16.38
2018-11-02T13:23:51.241Z,16.54
2018-11-02T13:26:24.190Z,16.60
2018-11-02T13:28:57.251Z,16.74
2018-11-02T13:31:30.114Z,17.01
2018-11-02T13:34:03.163Z,17.01
2018-11-02T13:36:36.388Z,17.04
2018-11-02T13:39:13.447Z,17.09
2018-11-02T13:41:44.887Z,17.14
2018-11-02T13:44:17.821Z,16.96
2018-11-02T13:46:50.777Z,16.99
2018-11-02T13:49:23.632Z,17.18
2018-11-02T13:51:56.480Z,17.52
2018-11-02T13:54:29.433Z,17.52
2018-11-02T13:57:00.507Z,17.40
2018-11-02T13:59:33.422Z,17.29
2018-11-02T14:02:04.884Z,17.16
2018-11-02T14:04:37.822Z,17.00
2018-11-02T14:07:10.627Z,16.90
2018-11-02T14:09:45.347Z,16.50
2018-11-02T14:12:18.419Z,16.50
2018-11-02T14:14:49.885Z,16.49
2018-11-02T14:17:22.677Z,16.45
2018-11-02T14:19:55.639Z,16.43
2018-11-02T14:22:28.620Z,16.36
2018-11-02T14:25:01.678Z,16.40
2018-11-02T14:27:34.509Z,16.27
2018-11-02T14:30:08.663Z,16.27
2018-11-02T14:32:41.657Z,16.06
2018-11-02T14:35:14.636Z,16.12
2018-11-02T14:37:47.501Z,16.03
2018-11-02T14:40:18.897Z,16.03
2018-11-02T14:42:51.727Z,15.81
2018-11-02T14:45:24.483Z,15.72
2018-11-02T14:47:57.413Z,15.58
2018-11-02T14:50:29.009Z,15.46
2018-11-02T14:53:01.980Z,15.40
2018-11-02T14:55:35.235Z,15.27
2018-11-02T14:58:08.253Z,15.21
2018-11-02T15:00:41.150Z,15.06
2018-11-02T15:03:14.123Z,14.88
2018-11-02T15:05:47.105Z,14.87
2018-11-02T15:08:20.269Z,14.81
2018-11-02T15:10:53.111Z,14.75
2018-11-02T15:13:26.098Z,14.67
2018-11-02T15:15:59.117Z,14.67
2018-11-02T15:18:32.110Z,14.59
2018-11-02T15:21:05.235Z,14.52
2018-11-02T15:23:38.139Z,14.42
2018-11-02T15:26:11.131Z,14.34
2018-11-02T15:28:44.465Z,14.26
2018-11-02T15:31:15.639Z,14.17
2018-11-02T15:33:48.674Z,14.01
2018-11-02T15:36:21.460Z,13.93
2018-11-02T15:38:52.884Z,13.78
2018-11-02T15:41:25.854Z,13.78
2018-11-02T15:43:58.965Z,13.78
2018-11-02T15:46:32.310Z,13.58
2018-11-02T15:49:05.709Z,13.58
2018-11-02T15:51:38.967Z,13.17
2018-11-02T15:54:12.360Z,13.17
2018-11-02T15:56:44.324Z,13.03
2018-11-02T15:59:17.246Z,13.01
2018-11-02T16:01:50.467Z,13.09
2018-11-02T16:04:21.876Z,13.16
2018-11-02T16:06:55.803Z,13.18
2018-11-02T16:09:29.253Z,13.10
2018-11-02T16:12:02.394Z,13.10
2018-11-02T16:14:34.170Z,12.96
2018-11-02T16:17:07.686Z,12.96
2018-11-02T16:19:41.317Z,12.97
2018-11-02T16:22:14.415Z,13.06
2018-11-02T16:24:45.923Z,13.21
2018-11-02T16:27:19.568Z,13.11
2018-11-02T16:29:51.087Z,13.09
2018-11-02T16:32:24.112Z,13.08
2018-11-02T16:34:57.126Z,13.13
2018-11-02T16:37:30.252Z,13.20
2018-11-02T16:40:03.101Z,13.13
2018-11-02T16:42:36.122Z,13.13
2018-11-02T16:45:11.251Z,13.18
2018-11-02T16:47:44.505Z,13.09
2018-11-02T16:50:17.483Z,13.00
2018-11-02T16:52:48.674Z,13.05
2018-11-02T16:55:21.686Z,13.07
2018-11-02T16:57:54.560Z,13.11
2018-11-02T17:00:27.298Z,13.11
2018-11-02T17:03:00.112Z,13.05
2018-11-02T17:05:33.150Z,13.00
2018-11-02T17:08:06.161Z,12.98
2018-11-02T17:10:39.153Z,12.98
2018-11-02T17:13:29.480Z,13.01
2018-11-02T17:16:02.364Z,12.99
2018-11-02T17:18:33.801Z,12.94
2018-11-02T17:21:06.781Z,12.92
2018-11-02T17:23:39.621Z,12.98
2018-11-02T17:26:12.493Z,12.94
2018-11-02T17:28:43.886Z,12.94
2018-11-02T17:31:16.618Z,12.89
2018-11-02T17:33:49.432Z,12.85
2018-11-02T17:36:20.617Z,12.83
2018-11-02T17:39:46.965Z,12.83
2018-11-02T17:42:20.103Z,12.77
2018-11-02T17:44:54.094Z,12.56
2018-11-02T17:47:27.176Z,12.56
2018-11-02T17:50:00.243Z,12.39
2018-11-02T17:52:33.118Z,12.40
2018-11-02T17:55:06.112Z,12.43
2018-11-02T17:57:39.604Z,12.44
2018-11-02T18:00:14.515Z,12.48
2018-11-02T18:02:47.397Z,12.55
2018-11-02T18:05:20.323Z,12.55
2018-11-02T18:07:53.143Z,12.63
2018-11-02T18:10:26.120Z,12.64
2018-11-02T18:12:59.154Z,12.63
2018-11-02T18:15:32.154Z,12.66
2018-11-02T18:18:05.122Z,12.66
2018-11-02T18:20:38.137Z,12.54
2018-11-02T18:23:11.113Z,12.54
2018-11-02T18:25:44.250Z,12.59
2018-11-02T18:28:17.136Z,12.64
2018-11-02T18:30:50.104Z,12.64
2018-11-02T18:33:23.095Z,12.66
2018-11-02T18:35:56.160Z,12.66
2018-11-02T18:38:29.410Z,12.66
2018-11-02T18:41:02.380Z,12.68
2018-11-02T18:43:35.408Z,12.69
2018-11-02T18:46:06.891Z,12.68
2018-11-02T18:48:39.972Z,12.65
2018-11-02T18:51:12.795Z,12.61
2018-11-02T18:53:45.662Z,12.61
2018-11-02T18:56:18.619Z,12.59
2018-11-02T18:58:51.450Z,12.59
2018-11-02T19:01:22.866Z,12.59
2018-11-02T19:03:55.471Z,12.59
2018-11-02T19:06:28.248Z,12.58
2018-11-02T19:09:01.253Z,12.58
2018-11-02T19:11:34.343Z,12.60
2018-11-02T19:14:07.142Z,12.60
2018-11-02T19:16:40.134Z,12.62
2018-11-02T19:19:13.168Z,12.62
2018-11-02T19:21:46.277Z,12.62
2018-11-02T19:24:19.128Z,12.59
2018-11-02T19:26:52.172Z,12.61
2018-11-02T19:29:25.150Z,12.62
2018-11-02T19:31:58.110Z,12.64
2018-11-02T19:34:31.236Z,12.66
2018-11-02T19:37:04.166Z,12.60
2018-11-02T19:39:37.149Z,12.56
2018-11-02T19:42:10.154Z,12.50
2018-11-02T19:44:43.137Z,12.53
2018-11-02T19:47:15.639Z,12.49
2018-11-02T19:49:48.433Z,12.52
2018-11-02T19:52:21.371Z,12.50
2018-11-02T19:54:54.135Z,12.48
2018-11-02T19:57:26.895Z,12.44
2018-11-02T19:59:59.668Z,12.38
2018-11-02T20:02:33.140Z,12.33
2018-11-02T20:05:06.343Z,12.33
2018-11-02T20:07:39.899Z,12.38
2018-11-02T20:10:49.256Z,12.45
2018-11-02T20:13:22.431Z,12.39
2018-11-02T20:15:53.895Z,12.38
2018-11-02T20:18:26.965Z,12.38
2018-11-02T20:21:00.155Z,12.40
2018-11-02T20:23:33.254Z,12.39
2018-11-02T20:26:06.706Z,12.41
2018-11-02T20:28:39.974Z,12.39
2018-11-02T20:31:13.164Z,12.39
2018-11-02T20:33:46.165Z,12.38
2018-11-02T20:36:19.030Z,12.40
2018-11-02T20:38:52.284Z,12.41
2018-11-02T20:41:25.259Z,12.42
2018-11-02T20:43:58.255Z,12.42
2018-11-02T20:46:31.148Z,12.43
2018-11-02T20:49:04.290Z,12.39
2018-11-02T20:51:39.295Z,12.29
2018-11-02T20:54:12.397Z,12.29
2018-11-02T20:56:45.142Z,12.27
2018-11-02T20:59:18.471Z,12.25
2018-11-02T21:01:49.885Z,12.26
2018-11-02T21:04:22.655Z,12.28
2018-11-02T21:06:55.974Z,12.28
2018-11-02T21:09:29.675Z,12.28
2018-11-02T21:12:02.499Z,12.28
2018-11-02T21:14:35.708Z,12.33
2018-11-02T21:17:07.117Z,12.31
2018-11-02T21:20:00.557Z,12.29
2018-11-02T21:22:34.474Z,12.27
2018-11-02T21:25:06.296Z,12.28
2018-11-02T21:27:39.536Z,12.29
2018-11-02T21:30:15.718Z,12.22
2018-11-02T21:32:49.133Z,12.15
2018-11-02T21:35:22.798Z,12.15
2018-11-02T21:37:55.702Z,12.15
2018-11-02T21:40:28.490Z,12.16
2018-11-02T21:43:01.436Z,12.14
2018-11-02T21:45:32.680Z,12.14
2018-11-02T21:48:05.657Z,12.22
2018-11-02T21:50:38.638Z,12.20
2018-11-02T21:53:11.626Z,12.18
2018-11-02T21:55:44.461Z,12.17
2018-11-02T21:58:15.901Z,12.17
2018-11-02T22:00:48.619Z,12.14
2018-11-02T22:03:21.514Z,12.13
2018-11-02T22:05:54.473Z,12.13
2018-11-02T22:08:25.672Z,12.12
2018-11-02T22:10:58.664Z,12.11
2018-11-02T22:13:31.490Z,12.07
2018-11-02T22:16:04.369Z,12.07
2018-11-02T22:18:37.233Z,12.06
2018-11-02T22:21:10.132Z,12.10
2018-11-02T22:23:43.103Z,12.12
2018-11-02T22:26:16.106Z,12.15
2018-11-02T22:28:49.204Z,12.18
2018-11-02T22:34:05.448Z,12.18
2018-11-02T22:36:36.892Z,12.17
2018-11-02T22:39:12.261Z,12.17
2018-11-02T22:41:45.250Z,12.12
2018-11-02T22:44:18.255Z,12.10
2018-11-02T22:46:51.160Z,12.09
2018-11-02T22:49:24.151Z,12.08
2018-11-02T22:51:57.230Z,12.08
2018-11-02T22:54:30.243Z,12.10
2018-11-02T22:57:03.168Z,12.10
2018-11-02T22:59:36.124Z,12.07
2018-11-02T23:02:09.394Z,12.07
2018-11-02T23:04:40.617Z,12.06
2018-11-02T23:07:13.433Z,11.99
2018-11-02T23:09:44.718Z,11.90
2018-11-02T23:12:17.615Z,11.93
2018-11-02T23:14:50.451Z,11.90
2018-11-02T23:17:21.642Z,11.90
2018-11-02T23:19:54.475Z,11.79
2018-11-02T23:22:25.892Z,11.79
2018-11-02T23:24:59.113Z,11.81
2018-11-02T23:27:32.139Z,11.81
2018-11-02T23:30:05.194Z,11.82
2018-11-02T23:32:38.142Z,11.82
2018-11-02T23:35:11.357Z,11.80
2018-11-02T23:37:44.359Z,11.79
2018-11-02T23:43:03.243Z,11.79
2018-11-02T23:45:36.551Z,11.76
2018-11-02T23:48:22.301Z,11.75
2018-11-02T23:50:55.134Z,11.77
2018-11-02T23:53:28.125Z,11.77
2018-11-02T23:56:01.210Z,11.73
2018-11-02T23:58:34.126Z,11.73
